Time;durP1;ratioP1;P1;durP2;ratioP2;P2;SDS_P1;SDS_P2;PMS_P1;PMS_P2;Temp;Humidity;BMP_temperature;BMP_pressure;BME280_temperature;BME280_humidity;BME280_pressure;Samples;Min_cycle;Max_cycle;Signal;HPM_P1;HPM_P2
2022/11/14 00:00:25;;;;;;;28.90;26.20;;;4.70;99.90;;;;;;5074127;28;20528;-67
2022/11/14 00:02:52;;;;;;;31.00;27.80;;;4.70;99.90;;;;;;5074038;28;20450;-68
2022/11/14 00:05:19;;;;;;;30.10;27.20;;;4.70;99.90;;;;;;5076544;28;20485;-67
2022/11/14 00:07:47;;;;;;;30.40;27.10;;;4.60;99.90;;;;;;5077292;28;20454;-68
2022/11/14 00:10:16;;;;;;;29.90;26.70;;;4.60;99.90;;;;;;5077588;28;20537;-67
2022/11/14 00:12:43;;;;;;;30.50;26.97;;;4.50;99.90;;;;;;5077808;28;20461;-67
2022/11/14 00:15:10;;;;;;;29.73;26.67;;;4.50;99.90;;;;;;5077453;28;20470;-67
2022/11/14 00:17:37;;;;;;;29.40;26.20;;;4.40;99.90;;;;;;5077445;28;20856;-68
2022/11/14 00:20:06;;;;;;;27.80;25.13;;;4.40;99.90;;;;;;5076984;28;20453;-67
2022/11/14 00:22:32;;;;;;;29.73;26.73;;;4.40;99.90;;;;;;5077255;28;20504;-67
2022/11/14 00:24:59;;;;;;;28.60;25.70;;;4.50;99.90;;;;;;5077762;28;21003;-67
2022/11/14 00:27:27;;;;;;;27.23;24.53;;;4.50;99.90;;;;;;5077418;28;20449;-68
2022/11/14 00:29:54;;;;;;;29.00;26.13;;;4.60;99.90;;;;;;5077232;28;20500;-67
2022/11/14 00:32:21;;;;;;;29.67;26.67;;;4.50;99.90;;;;;;5077274;28;20505;-67
2022/11/14 00:34:48;;;;;;;27.77;24.97;;;4.50;99.90;;;;;;5077121;28;20552;-67
2022/11/14 00:37:14;;;;;;;28.87;25.87;;;4.50;99.90;;;;;;5076942;28;20442;-68
2022/11/14 00:39:41;;;;;;;27.20;24.50;;;4.60;99.90;;;;;;5077133;28;20446;-67
2022/11/14 00:42:08;;;;;;;25.07;22.67;;;4.60;99.90;;;;;;5076949;28;20446;-68
2022/11/14 00:44:36;;;;;;;24.73;22.43;;;4.60;99.90;;;;;;5077083;28;20503;-67
2022/11/14 00:47:02;;;;;;;24.73;21.77;;;4.60;99.90;;;;;;5083329;28;20619;-67
2022/11/14 00:49:29;;;;;;;24.33;22.00;;;4.60;99.90;;;;;;5085614;28;20461;-69
2022/11/14 00:51:56;;;;;;;23.00;20.70;;;4.60;99.90;;;;;;5077037;28;20450;-68
2022/11/14 00:54:22;;;;;;;22.40;20.23;;;4.60;99.90;;;;;;5076541;28;20483;-68
2022/11/14 00:56:49;;;;;;;23.27;20.97;;;4.60;99.90;;;;;;5076490;28;20503;-68
2022/11/14 00:59:15;;;;;;;21.40;19.30;;;4.60;99.90;;;;;;5076776;28;20462;-68
2022/11/14 01:01:43;;;;;;;22.17;20.17;;;4.60;99.90;;;;;;5076567;28;20450;-67
2022/11/14 01:04:10;;;;;;;22.53;20.27;;;4.50;99.90;;;;;;5076527;28;20477;-68
2022/11/14 01:06:37;;;;;;;20.70;18.83;;;4.50;99.90;;;;;;5076307;28;20477;-68
2022/11/14 01:09:04;;;;;;;21.17;19.17;;;4.50;99.90;;;;;;5077711;28;20519;-67
2022/11/14 01:11:30;;;;;;;20.63;18.67;;;4.50;99.90;;;;;;5077786;28;20450;-68
2022/11/14 01:13:57;;;;;;;21.77;19.67;;;4.40;99.90;;;;;;5076980;28;20473;-68
2022/11/14 01:16:24;;;;;;;20.70;18.70;;;4.40;99.90;;;;;;5076167;28;20449;-69
2022/11/14 01:18:52;;;;;;;20.13;18.17;;;4.40;99.90;;;;;;5085613;28;20461;-68
2022/11/14 01:21:18;;;;;;;20.00;18.20;;;4.40;99.90;;;;;;5087404;28;20458;-69
2022/11/14 01:23:45;;;;;;;20.60;18.67;;;4.40;99.90;;;;;;5080581;28;20527;-68
2022/11/14 01:26:13;;;;;;;21.07;18.97;;;4.40;99.90;;;;;;5078918;28;20478;-68
2022/11/14 01:28:41;;;;;;;19.57;17.67;;;4.40;99.90;;;;;;5077662;28;20446;-68
2022/11/14 01:31:09;;;;;;;19.47;17.67;;;4.40;99.90;;;;;;5077480;28;20450;-68
2022/11/14 01:33:36;;;;;;;20.23;18.30;;;4.30;99.90;;;;;;5077363;28;20829;-68
2022/11/14 01:36:05;;;;;;;20.70;18.60;;;4.30;99.90;;;;;;5077118;28;20484;-68
2022/11/14 01:38:32;;;;;;;20.40;18.50;;;4.40;99.90;;;;;;5076506;28;20904;-67
2022/11/14 01:40:58;;;;;;;21.70;19.57;;;4.30;99.90;;;;;;5076323;28;20450;-67
2022/11/14 01:43:31;;;;;;;22.23;19.70;;;4.30;99.90;;;;;;5075913;28;20454;-67
2022/11/14 01:46:01;;;;;;;21.03;18.23;;;4.30;99.90;;;;;;5076379;28;20965;-67
2022/11/14 01:48:35;;;;;;;20.37;18.37;;;4.40;99.90;;;;;;5075905;28;20949;-67
2022/11/14 01:51:07;;;;;;;20.10;18.20;;;4.40;99.90;;;;;;5075957;28;20443;-67
2022/11/14 01:53:34;;;;;;;23.17;20.97;;;4.40;99.90;;;;;;5075876;28;20474;-68
2022/11/14 01:56:04;;;;;;;20.47;18.40;;;4.40;99.90;;;;;;5076227;28;20450;-67
2022/11/14 01:58:33;;;;;;;21.03;18.93;;;4.40;99.90;;;;;;5076040;28;20454;-68
2022/11/14 02:01:00;;;;;;;23.53;21.20;;;4.40;99.90;;;;;;5075919;28;20453;-67
2022/11/14 02:03:27;;;;;;;23.00;20.87;;;4.40;99.90;;;;;;5075562;28;20461;-68
2022/11/14 02:05:55;;;;;;;22.17;19.80;;;4.40;99.90;;;;;;5074980;28;21018;-67
2022/11/14 02:08:24;;;;;;;23.20;21.00;;;4.40;99.90;;;;;;5075513;28;20462;-68
2022/11/14 02:10:50;;;;;;;22.73;20.50;;;4.40;99.90;;;;;;5074985;28;20454;-67
2022/11/14 02:13:17;;;;;;;25.40;22.97;;;4.40;99.90;;;;;;5074899;28;20453;-68
2022/11/14 02:15:44;;;;;;;25.53;22.83;;;4.50;99.90;;;;;;5075634;28;20789;-67
2022/11/14 02:18:11;;;;;;;25.50;22.97;;;4.50;99.90;;;;;;5075033;28;20572;-67
2022/11/14 02:20:42;;;;;;;27.67;24.80;;;4.40;99.90;;;;;;5075397;28;20454;-68
2022/11/14 02:23:10;;;;;;;26.03;23.40;;;4.50;99.90;;;;;;5074942;28;20435;-68
2022/11/14 02:25:37;;;;;;;27.50;24.70;;;4.50;99.90;;;;;;5074958;28;20533;-68
2022/11/14 02:28:05;;;;;;;28.97;25.87;;;4.50;99.90;;;;;;5074293;28;20446;-67
2022/11/14 02:30:32;;;;;;;27.53;24.63;;;4.50;99.90;;;;;;5074860;28;20458;-68
2022/11/14 02:32:58;;;;;;;27.57;24.77;;;4.50;99.90;;;;;;5075019;28;20468;-67
2022/11/14 02:35:25;;;;;;;29.03;26.00;;;4.50;99.90;;;;;;5084419;28;20466;-69
2022/11/14 02:37:53;;;;;;;33.80;27.73;;;4.50;99.90;;;;;;5089596;28;20902;-67
2022/11/14 02:40:20;;;;;;;31.03;27.73;;;4.40;99.90;;;;;;5087556;28;20783;-68
2022/11/14 02:42:46;;;;;;;30.07;26.00;;;4.30;99.90;;;;;;5088263;28;20566;-68
2022/11/14 02:45:13;;;;;;;33.97;28.30;;;4.20;99.90;;;;;;5075818;28;20492;-67
2022/11/14 02:47:40;;;;;;;32.50;27.43;;;4.10;99.90;;;;;;5074901;28;20523;-67
2022/11/14 02:50:07;;;;;;;36.50;30.63;;;4.00;99.90;;;;;;5074674;28;20500;-67
2022/11/14 02:52:34;;;;;;;36.97;30.50;;;3.90;99.90;;;;;;5079557;28;20462;-68
2022/11/14 02:55:02;;;;;;;40.80;32.53;;;3.80;99.90;;;;;;5080595;28;20474;-68
2022/11/14 02:57:28;;;;;;;41.00;33.10;;;3.80;99.90;;;;;;5074354;28;20446;-69
2022/11/14 02:59:55;;;;;;;45.57;34.37;;;3.70;99.90;;;;;;5074561;28;20453;-67
2022/11/14 03:02:22;;;;;;;42.17;33.23;;;3.60;99.90;;;;;;5074234;28;20450;-68
2022/11/14 03:04:48;;;;;;;43.47;32.63;;;3.50;99.90;;;;;;5074079;28;20478;-68
2022/11/14 03:07:15;;;;;;;64.73;34.73;;;3.40;99.90;;;;;;5073846;28;20880;-68
2022/11/14 03:09:42;;;;;;;85.70;37.27;;;3.40;99.90;;;;;;5073876;28;20945;-68
2022/11/14 03:12:10;;;;;;;45.23;35.27;;;3.30;99.90;;;;;;5073926;28;20476;-68
2022/11/14 03:14:37;;;;;;;48.77;35.60;;;3.20;99.90;;;;;;5074066;28;20473;-68
2022/11/14 03:17:03;;;;;;;43.57;33.80;;;3.10;99.90;;;;;;5073658;28;20465;-68
2022/11/14 03:19:30;;;;;;;50.87;36.50;;;3.10;99.90;;;;;;5074118;28;20449;-68
2022/11/14 03:21:57;;;;;;;48.20;35.90;;;3.10;99.90;;;;;;5074008;28;20449;-69
2022/11/14 03:24:23;;;;;;;51.10;36.50;;;3.10;99.90;;;;;;5073708;28;20977;-68
2022/11/14 03:26:50;;;;;;;41.63;33.50;;;3.10;99.90;;;;;;5074004;28;20474;-68
2022/11/14 03:29:18;;;;;;;46.30;34.10;;;3.20;99.90;;;;;;5075253;28;20483;-68
2022/11/14 03:31:44;;;;;;;45.63;34.17;;;3.20;99.90;;;;;;5074545;28;20515;-68
2022/11/14 03:34:11;;;;;;;47.60;34.50;;;3.20;99.90;;;;;;5074037;28;20474;-69
2022/11/14 03:36:38;;;;;;;43.50;34.53;;;3.10;99.90;;;;;;5074010;28;20438;-68
2022/11/14 03:39:06;;;;;;;42.90;34.90;;;3.10;99.90;;;;;;5075165;28;20499;-68
2022/11/14 03:41:32;;;;;;;50.80;36.43;;;3.10;99.90;;;;;;5077913;28;20450;-68
2022/11/14 03:43:59;;;;;;;41.53;33.20;;;3.10;99.90;;;;;;5077632;28;21003;-69
2022/11/14 03:46:27;;;;;;;46.87;32.90;;;3.20;99.90;;;;;;5077912;28;20470;-68
2022/11/14 03:48:54;;;;;;;37.50;30.33;;;3.20;99.90;;;;;;5077678;28;20462;-69
2022/11/14 03:51:20;;;;;;;39.97;32.37;;;3.20;99.90;;;;;;5078081;28;20446;-68
2022/11/14 03:53:47;;;;;;;38.27;30.93;;;3.20;99.90;;;;;;5077462;28;20474;-69
2022/11/14 03:56:14;;;;;;;42.67;33.33;;;3.30;99.90;;;;;;5077614;28;20817;-68
2022/11/14 03:58:40;;;;;;;39.00;31.70;;;3.30;99.90;;;;;;5077746;28;20588;-68
2022/11/14 04:01:07;;;;;;;41.77;33.50;;;3.30;99.90;;;;;;5077492;28;20457;-68
2022/11/14 04:03:35;;;;;;;40.90;31.50;;;3.20;99.90;;;;;;5077036;28;20568;-68
2022/11/14 04:06:02;;;;;;;40.63;31.73;;;3.20;99.90;;;;;;5077468;28;20450;-68
2022/11/14 04:08:29;;;;;;;41.20;32.50;;;3.20;99.90;;;;;;5077583;28;20474;-69
2022/11/14 04:10:56;;;;;;;42.00;32.90;;;3.20;99.90;;;;;;5089196;28;20480;-68
2022/11/14 04:13:22;;;;;;;43.73;33.50;;;3.10;99.90;;;;;;5088162;28;20450;-68
2022/11/14 04:15:55;;;;;;;43.27;34.10;;;3.00;99.90;;;;;;5080064;28;20450;-68
2022/11/14 04:18:22;;;;;;;41.07;31.60;;;3.00;99.90;;;;;;5079571;28;20488;-68
2022/11/14 04:20:50;;;;;;;41.37;32.80;;;2.90;99.90;;;;;;5078860;28;20859;-68
2022/11/14 04:23:17;;;;;;;42.57;33.60;;;2.90;99.90;;;;;;5078426;28;20450;-67
2022/11/14 04:25:44;;;;;;;46.23;35.93;;;2.90;99.90;;;;;;5077926;28;20503;-68
2022/11/14 04:28:11;;;;;;;54.13;36.87;;;2.80;99.90;;;;;;5078253;28;20474;-68
2022/11/14 04:30:38;;;;;;;53.97;37.60;;;2.80;99.90;;;;;;5077710;28;20458;-68
2022/11/14 04:33:04;;;;;;;49.50;36.47;;;2.70;99.90;;;;;;5078052;28;20869;-67
2022/11/14 04:35:31;;;;;;;43.00;34.27;;;2.70;99.90;;;;;;5078690;28;20853;-68
2022/11/14 04:37:59;;;;;;;45.30;34.87;;;2.80;99.90;;;;;;5077498;28;20450;-67
2022/11/14 04:40:26;;;;;;;44.33;34.83;;;2.70;99.90;;;;;;5077242;28;20450;-68
2022/11/14 04:42:53;;;;;;;46.97;35.27;;;2.80;99.90;;;;;;5077959;28;20458;-68
2022/11/14 04:45:19;;;;;;;49.67;36.63;;;2.80;99.90;;;;;;5077459;28;20507;-68
2022/11/14 04:47:46;;;;;;;48.50;36.77;;;2.80;99.90;;;;;;5077019;28;20522;-68
2022/11/14 04:50:13;;;;;;;48.47;35.57;;;2.70;99.90;;;;;;5076398;28;20480;-69
2022/11/14 04:52:39;;;;;;;43.50;33.87;;;2.80;99.90;;;;;;5077303;28;20446;-68
2022/11/14 04:55:08;;;;;;;44.93;34.77;;;2.90;99.90;;;;;;5077296;28;20466;-68
2022/11/14 04:57:35;;;;;;;48.10;35.50;;;2.90;99.90;;;;;;5078997;28;20446;-68
2022/11/14 05:00:02;;;;;;;47.43;34.93;;;3.00;99.90;;;;;;5086805;28;20941;-69
2022/11/14 05:02:31;;;;;;;41.70;33.67;;;3.00;99.90;;;;;;5079039;28;20475;-68
2022/11/14 05:04:58;;;;;;;42.20;33.73;;;3.00;99.90;;;;;;5076822;28;20470;-68
2022/11/14 05:07:24;;;;;;;42.23;33.73;;;3.00;99.90;;;;;;5077025;28;20470;-68
2022/11/14 05:09:51;;;;;;;40.57;33.30;;;3.00;99.90;;;;;;5077075;28;20461;-69
2022/11/14 05:12:19;;;;;;;42.67;33.20;;;3.00;99.90;;;;;;5076867;28;20450;-68
2022/11/14 05:14:46;;;;;;;40.07;32.40;;;3.00;99.90;;;;;;5076643;28;20470;-69
2022/11/14 05:17:12;;;;;;;40.33;32.77;;;3.00;99.90;;;;;;5076540;28;20447;-68
2022/11/14 05:19:39;;;;;;;39.70;33.03;;;3.00;99.90;;;;;;5076990;28;20860;-68
2022/11/14 05:22:06;;;;;;;41.27;32.47;;;2.90;99.90;;;;;;5077891;28;20503;-68
2022/11/14 05:24:32;;;;;;;40.80;31.03;;;2.90;99.90;;;;;;5086024;28;20496;-69
2022/11/14 05:26:59;;;;;;;36.10;30.03;;;2.80;99.90;;;;;;5088239;28;20470;-68
2022/11/14 05:29:27;;;;;;;37.23;30.43;;;2.80;99.90;;;;;;5086447;28;20443;-68
2022/11/14 05:31:53;;;;;;;40.37;31.50;;;2.80;99.90;;;;;;5084009;28;20499;-68
2022/11/14 05:34:20;;;;;;;35.50;28.03;;;2.80;99.90;;;;;;5077678;28;20471;-68
2022/11/14 05:36:47;;;;;;;34.23;28.77;;;2.80;99.90;;;;;;5076278;28;20603;-68
2022/11/14 05:39:13;;;;;;;33.57;28.00;;;2.80;99.90;;;;;;5076600;28;20461;-69
2022/11/14 05:41:40;;;;;;;34.87;27.37;;;2.80;99.90;;;;;;5076609;28;20450;-69
2022/11/14 05:44:07;;;;;;;31.03;26.43;;;2.90;99.90;;;;;;5076975;28;20478;-68
2022/11/14 05:46:35;;;;;;;29.90;25.60;;;2.90;99.90;;;;;;5077190;28;20450;-68
2022/11/14 05:49:02;;;;;;;28.70;25.50;;;2.90;99.90;;;;;;5076251;28;20482;-68
2022/11/14 05:51:28;;;;;;;26.80;23.90;;;3.00;99.90;;;;;;5076582;28;20454;-68
2022/11/14 05:53:55;;;;;;;26.47;23.77;;;2.90;99.90;;;;;;5075684;28;20470;-68
2022/11/14 05:56:22;;;;;;;31.20;25.23;;;3.00;99.90;;;;;;5075940;28;20450;-69
2022/11/14 05:58:49;;;;;;;28.33;25.23;;;3.00;99.90;;;;;;5075720;28;20450;-70
2022/11/14 06:01:17;;;;;;;24.47;21.93;;;3.00;99.90;;;;;;5076448;28;20454;-68
2022/11/14 06:03:47;;;;;;;27.17;23.63;;;3.00;99.90;;;;;;5076089;28;20474;-69
2022/11/14 06:06:16;;;;;;;25.03;22.53;;;3.00;99.90;;;;;;5076580;28;20450;-68
2022/11/14 06:08:42;;;;;;;24.67;22.00;;;3.00;99.90;;;;;;5076543;28;20868;-68
2022/11/14 06:11:11;;;;;;;24.30;21.80;;;3.00;99.90;;;;;;5076164;28;20454;-68
2022/11/14 06:13:38;;;;;;;24.63;22.03;;;3.00;99.90;;;;;;5076211;28;20535;-68
2022/11/14 06:16:06;;;;;;;25.30;22.60;;;3.00;99.90;;;;;;5076654;28;20500;-68
2022/11/14 06:18:35;;;;;;;25.67;23.03;;;3.10;99.90;;;;;;5075753;28;20503;-69
2022/11/14 06:21:05;;;;;;;23.60;21.30;;;3.10;99.90;;;;;;5075589;28;20503;-68
2022/11/14 06:23:32;;;;;;;23.77;21.43;;;3.20;99.90;;;;;;5075759;28;20449;-67
2022/11/14 06:26:00;;;;;;;22.63;20.50;;;3.20;99.90;;;;;;5076222;28;20454;-68
2022/11/14 06:28:27;;;;;;;24.10;21.70;;;3.30;99.90;;;;;;5075827;28;20481;-67
2022/11/14 06:30:58;;;;;;;24.20;21.80;;;3.30;99.90;;;;;;5075852;28;20536;-68
2022/11/14 06:33:24;;;;;;;22.97;20.77;;;3.40;99.90;;;;;;5076106;28;20916;-67
2022/11/14 06:35:51;;;;;;;22.43;20.23;;;3.50;99.90;;;;;;5075914;28;20824;-68
2022/11/14 06:38:19;;;;;;;22.90;20.67;;;3.60;99.90;;;;;;5075686;28;20846;-67
2022/11/14 06:40:45;;;;;;;22.23;19.90;;;3.60;99.90;;;;;;5075945;28;20454;-67
2022/11/14 06:43:12;;;;;;;22.30;20.10;;;3.70;99.90;;;;;;5075693;28;20450;-69
2022/11/14 06:45:39;;;;;;;21.30;19.30;;;3.70;99.90;;;;;;5074933;28;20527;-69
2022/11/14 06:48:06;;;;;;;22.70;20.40;;;3.80;99.90;;;;;;5075621;28;20899;-71
2022/11/14 06:50:33;;;;;;;21.70;19.70;;;3.80;99.90;;;;;;5075120;28;20537;-67
2022/11/14 06:53:00;;;;;;;19.50;17.70;;;3.90;99.90;;;;;;5075012;28;20937;-68
2022/11/14 06:55:27;;;;;;;19.77;17.97;;;4.00;99.90;;;;;;5075079;28;20474;-69
2022/11/14 06:57:54;;;;;;;19.83;18.00;;;4.10;99.90;;;;;;5075175;28;20447;-69
2022/11/14 07:00:22;;;;;;;22.00;18.57;;;4.10;99.90;;;;;;5074635;28;20462;-68
2022/11/14 07:02:49;;;;;;;20.37;18.47;;;4.20;99.90;;;;;;5076188;28;20973;-68
2022/11/14 07:05:16;;;;;;;19.37;17.57;;;4.20;99.90;;;;;;5075366;28;20880;-68
2022/11/14 07:07:42;;;;;;;20.37;18.37;;;4.20;99.90;;;;;;5075163;28;20474;-68
2022/11/14 07:10:09;;;;;;;19.47;17.70;;;4.30;99.90;;;;;;5074913;28;20454;-68
2022/11/14 07:12:37;;;;;;;18.33;16.67;;;4.30;99.90;;;;;;5074602;28;20857;-68
2022/11/14 07:15:05;;;;;;;19.23;17.57;;;4.30;99.90;;;;;;5080436;28;20977;-67
2022/11/14 07:17:34;;;;;;;18.80;17.10;;;4.30;99.90;;;;;;5090622;28;20443;-68
2022/11/14 07:20:01;;;;;;;19.07;17.47;;;4.30;99.90;;;;;;5089011;28;20442;-68
2022/11/14 07:22:27;;;;;;;19.40;17.50;;;4.40;99.90;;;;;;5083703;28;20480;-68
2022/11/14 07:24:54;;;;;;;18.47;16.87;;;4.50;99.90;;;;;;5087009;28;20470;-68
2022/11/14 07:27:21;;;;;;;18.83;17.20;;;4.50;99.90;;;;;;5078893;28;20484;-68
2022/11/14 07:29:49;;;;;;;20.40;18.30;;;4.60;99.90;;;;;;5075224;28;20454;-68
2022/11/14 07:32:16;;;;;;;19.07;17.33;;;4.70;99.90;;;;;;5074607;28;20863;-68
2022/11/14 07:34:42;;;;;;;18.77;17.17;;;4.80;99.90;;;;;;5075207;28;20470;-68
2022/11/14 07:37:09;;;;;;;19.47;17.10;;;4.90;99.90;;;;;;5074874;28;20450;-67
2022/11/14 07:39:36;;;;;;;19.23;17.53;;;5.00;99.90;;;;;;5075203;28;20472;-69
2022/11/14 07:42:02;;;;;;;24.03;18.70;;;5.10;99.90;;;;;;5083019;28;20512;-67
2022/11/14 07:44:29;;;;;;;18.60;16.70;;;5.20;99.90;;;;;;5088148;28;20474;-69
2022/11/14 07:46:57;;;;;;;19.00;17.30;;;5.20;99.90;;;;;;5085805;28;20450;-69
2022/11/14 07:49:24;;;;;;;17.60;15.90;;;5.40;99.90;;;;;;5075010;28;20485;-69
2022/11/14 07:51:50;;;;;;;17.67;15.97;;;5.50;99.90;;;;;;5074985;28;20453;-68
2022/11/14 07:54:17;;;;;;;17.40;15.80;;;5.70;99.90;;;;;;5074538;28;20515;-68
2022/11/14 07:56:44;;;;;;;17.93;16.13;;;5.70;99.90;;;;;;5074461;28;20450;-69
2022/11/14 07:59:10;;;;;;;17.60;15.90;;;5.80;99.90;;;;;;5073819;28;20449;-68
2022/11/14 08:01:37;;;;;;;18.63;16.73;;;5.80;99.90;;;;;;5074328;28;20450;-68
2022/11/14 08:04:05;;;;;;;17.47;15.77;;;5.90;99.90;;;;;;5074651;28;20469;-68
2022/11/14 08:06:32;;;;;;;16.90;15.33;;;5.80;99.90;;;;;;5075983;28;20454;-68
2022/11/14 08:08:58;;;;;;;16.97;15.50;;;5.80;99.90;;;;;;5075724;28;20469;-68
2022/11/14 08:14:06;;;;;;;16.93;15.13;;;5.90;99.90;;;;;;5073863;28;20826;-69
2022/11/14 08:16:33;;;;;;;17.73;15.93;;;5.90;99.90;;;;;;5074359;28;20434;-68
2022/11/14 08:19:00;;;;;;;17.50;15.73;;;5.80;99.90;;;;;;5074560;28;20446;-68
2022/11/14 08:21:28;;;;;;;17.90;16.10;;;5.80;99.90;;;;;;5074008;28;20480;-69
2022/11/14 08:23:54;;;;;;;18.07;16.27;;;5.80;99.90;;;;;;5074104;28;20587;-68
2022/11/14 08:26:21;;;;;;;17.30;15.70;;;5.80;99.90;;;;;;5076442;28;20446;-68
2022/11/14 08:28:48;;;;;;;18.03;16.33;;;5.70;99.90;;;;;;5078179;28;20529;-68
2022/11/14 08:31:14;;;;;;;18.17;16.30;;;5.70;99.90;;;;;;5078427;28;20480;-68
2022/11/14 08:33:41;;;;;;;21.00;18.37;;;5.70;99.90;;;;;;5078251;28;20470;-68
2022/11/14 08:36:10;;;;;;;18.90;17.10;;;5.70;99.90;;;;;;5077724;28;20481;-68
2022/11/14 08:38:38;;;;;;;19.77;17.77;;;5.70;99.90;;;;;;5077021;28;20930;-67
2022/11/14 08:41:05;;;;;;;21.43;19.37;;;5.60;99.90;;;;;;5076993;28;20447;-67
2022/11/14 08:43:32;;;;;;;20.90;18.50;;;5.60;99.90;;;;;;5076991;28;20449;-67
2022/11/14 08:46:00;;;;;;;20.47;18.57;;;5.60;99.90;;;;;;5076988;28;20482;-67
2022/11/14 08:48:27;;;;;;;21.50;19.30;;;5.60;99.90;;;;;;5077219;28;20504;-67
2022/11/14 08:50:54;;;;;;;26.30;19.53;;;5.50;99.90;;;;;;5078523;28;20856;-68
2022/11/14 08:53:20;;;;;;;24.33;20.77;;;5.50;99.90;;;;;;5076798;28;20454;-67
2022/11/14 08:55:49;;;;;;;25.90;23.10;;;5.40;99.90;;;;;;5076772;28;20507;-66
2022/11/14 08:58:15;;;;;;;28.33;25.27;;;5.50;99.90;;;;;;5076719;28;20450;-67
2022/11/14 09:00:42;;;;;;;30.40;26.33;;;5.40;99.90;;;;;;5076349;28;20489;-67
2022/11/14 09:03:09;;;;;;;25.70;23.13;;;5.40;99.90;;;;;;5076335;28;20450;-66
2022/11/14 09:05:36;;;;;;;28.60;25.50;;;5.40;99.90;;;;;;5076507;28;20474;-68
2022/11/14 09:08:03;;;;;;;34.03;27.87;;;5.40;99.90;;;;;;5077823;28;20481;-67
2022/11/14 09:10:29;;;;;;;30.53;26.17;;;5.40;99.90;;;;;;5076298;28;20961;-67
2022/11/14 09:12:58;;;;;;;33.87;25.37;;;5.50;99.90;;;;;;5076504;28;20442;-67
2022/11/14 09:15:25;;;;;;;29.47;26.37;;;5.60;99.90;;;;;;5076517;28;20466;-66
2022/11/14 09:17:53;;;;;;;23.60;21.07;;;5.70;99.90;;;;;;5076332;28;20955;-67
2022/11/14 09:20:19;;;;;;;19.50;17.50;;;5.90;99.90;;;;;;5076405;28;20821;-67
2022/11/14 09:22:46;;;;;;;22.23;19.87;;;6.10;99.90;;;;;;5076315;28;20454;-67
2022/11/14 09:25:13;;;;;;;21.23;18.83;;;6.30;99.90;;;;;;5076013;28;20985;-67
2022/11/14 09:27:40;;;;;;;22.03;19.83;;;6.60;99.90;;;;;;5077278;28;20473;-68
2022/11/14 09:30:09;;;;;;;14.80;13.30;;;6.80;99.90;;;;;;5078466;28;20474;-67
2022/11/14 09:32:36;;;;;;;14.77;11.97;;;7.00;99.90;;;;;;5083740;28;20451;-67
2022/11/14 09:35:03;;;;;;;17.23;12.27;;;7.20;99.90;;;;;;5095830;28;20462;-67
2022/11/14 09:37:30;;;;;;;13.60;12.37;;;7.30;99.90;;;;;;5094278;28;20484;-69
2022/11/14 09:39:56;;;;;;;12.20;11.00;;;7.40;99.90;;;;;;5077792;28;20508;-68
2022/11/14 09:42:41;;;;;;;11.60;10.33;;;7.50;99.90;;;;;;5076468;28;20449;-68
2022/11/14 09:45:12;;;;;;;12.50;11.20;;;7.60;99.90;;;;;;5075894;28;20474;-69
2022/11/14 09:47:42;;;;;;;14.33;11.43;;;7.70;99.90;;;;;;5075421;28;20492;-69
2022/11/14 09:50:14;;;;;;;13.37;12.07;;;7.80;99.90;;;;;;5075595;28;20470;-69
2022/11/14 09:52:46;;;;;;;13.97;12.60;;;7.80;99.90;;;;;;5075255;28;20439;-68
2022/11/14 09:55:17;;;;;;;13.70;12.50;;;7.90;99.90;;;;;;5075558;28;20473;-67
2022/11/14 09:57:45;;;;;;;15.77;14.37;;;7.90;99.90;;;;;;5075475;28;20864;-68
2022/11/14 10:00:15;;;;;;;16.90;15.40;;;8.00;99.90;;;;;;5075648;28;20442;-68
2022/11/14 10:03:03;;;;;;;18.37;16.63;;;8.00;99.90;;;;;;5075317;28;20442;-68
2022/11/14 10:05:54;;;;;;;17.10;15.47;;;8.00;99.90;;;;;;5074922;28;20561;-68
2022/11/14 10:08:37;;;;;;;14.23;12.53;;;8.00;99.90;;;;;;5075683;28;20485;-68
2022/11/14 10:11:08;;;;;;;10.70;9.70;;;8.00;99.90;;;;;;5075468;28;20438;-68
2022/11/14 10:13:49;;;;;;;9.33;8.47;;;8.10;99.90;;;;;;5075406;28;20445;-67
2022/11/14 10:16:29;;;;;;;7.10;6.50;;;8.30;99.90;;;;;;5075010;28;20438;-68
2022/11/14 10:19:09;;;;;;;7.43;6.70;;;8.40;99.90;;;;;;5075368;28;20434;-68
2022/11/14 10:21:51;;;;;;;7.33;6.73;;;8.50;99.90;;;;;;5075091;28;20434;-68
2022/11/14 10:24:36;;;;;;;5.93;5.53;;;8.60;99.90;;;;;;5074988;28;20470;-68
2022/11/14 10:27:05;;;;;;;7.60;6.90;;;8.80;99.90;;;;;;5075418;28;20441;-67
2022/11/14 10:29:49;;;;;;;7.03;6.40;;;8.90;99.90;;;;;;5075178;28;20478;-68
2022/11/14 10:32:29;;;;;;;6.73;6.13;;;9.10;99.90;;;;;;5074814;28;20453;-68
2022/11/14 10:35:02;;;;;;;10.40;8.67;;;9.30;99.90;;;;;;5074616;28;21034;-68
2022/11/14 10:37:37;;;;;;;7.03;6.47;;;9.50;99.90;;;;;;5075270;28;20434;-67
2022/11/14 10:40:15;;;;;;;6.80;6.30;;;9.60;99.90;;;;;;5075388;28;20449;-68
2022/11/14 10:42:46;;;;;;;7.40;5.63;;;9.70;99.90;;;;;;5074546;28;20906;-67
2022/11/14 10:45:22;;;;;;;7.70;7.10;;;9.90;99.90;;;;;;5074806;28;20514;-68
2022/11/14 10:47:53;;;;;;;7.00;6.40;;;10.10;99.90;;;;;;5075099;28;20434;-69
2022/11/14 10:50:24;;;;;;;6.67;6.20;;;10.20;99.90;;;;;;5074717;28;20507;-69
2022/11/14 10:52:56;;;;;;;7.00;6.50;;;10.10;99.90;;;;;;5075283;28;20495;-68
2022/11/14 10:55:24;;;;;;;7.33;6.43;;;10.00;99.90;;;;;;5075707;28;20474;-69
2022/11/14 10:57:50;;;;;;;6.90;6.30;;;10.00;99.90;;;;;;5074448;28;20933;-69
2022/11/14 11:00:21;;;;;;;6.73;6.23;;;9.90;99.90;;;;;;5075753;28;20453;-67
2022/11/14 11:02:52;;;;;;;7.20;6.57;;;9.90;99.90;;;;;;5074548;28;20526;-68
2022/11/14 11:05:21;;;;;;;7.10;6.50;;;9.80;99.90;;;;;;5075217;28;20988;-68
2022/11/14 11:13:31;;;;;;;6.43;5.90;;;9.70;99.90;;;;;;5074915;28;20549;-68
2022/11/14 11:16:00;;;;;;;7.00;6.40;;;9.80;99.90;;;;;;5074647;28;20442;-68
2022/11/14 11:18:30;;;;;;;6.27;5.67;;;9.80;99.90;;;;;;5074694;28;20454;-68
2022/11/14 11:21:08;;;;;;;5.77;5.30;;;9.90;99.90;;;;;;5074984;28;20496;-68
2022/11/14 11:23:36;;;;;;;6.57;6.07;;;10.20;99.90;;;;;;5085660;28;20476;-68
2022/11/14 11:26:07;;;;;;;6.23;5.63;;;10.60;99.90;;;;;;5092699;28;20454;-69
2022/11/14 11:28:35;;;;;;;6.20;5.00;;;10.90;99.90;;;;;;5086391;28;20439;-68
2022/11/14 11:31:04;;;;;;;5.90;5.40;;;11.20;99.90;;;;;;5074810;28;20458;-68
2022/11/14 11:33:33;;;;;;;5.30;4.90;;;11.50;99.90;;;;;;5074242;28;20453;-68
2022/11/14 11:36:03;;;;;;;5.07;4.67;;;11.70;99.90;;;;;;5074187;28;20454;-68
2022/11/14 11:38:31;;;;;;;4.80;4.50;;;11.70;99.90;;;;;;5074624;28;20454;-69
2022/11/14 11:41:06;;;;;;;4.57;4.17;;;11.80;99.90;;;;;;5074117;28;20929;-69
2022/11/14 11:43:38;;;;;;;4.83;4.43;;;12.00;99.90;;;;;;5074932;28;20444;-68
2022/11/14 11:46:11;;;;;;;4.20;3.90;;;11.90;99.90;;;;;;5074283;28;20444;-67
2022/11/14 11:48:40;;;;;;;4.70;4.40;;;11.90;99.90;;;;;;5074449;28;20968;-67
2022/11/14 11:51:13;;;;;;;5.03;4.53;;;11.80;99.90;;;;;;5074568;28;20450;-66
2022/11/14 11:53:42;;;;;;;5.27;4.10;;;11.80;99.90;;;;;;5074499;28;20478;-67
2022/11/14 11:56:12;;;;;;;4.50;4.10;;;11.80;99.90;;;;;;5075295;28;20942;-66
2022/11/14 11:58:45;;;;;;;4.57;4.27;;;11.70;99.90;;;;;;5075823;28;20443;-66
2022/11/14 12:01:14;;;;;;;5.77;4.40;;;11.60;99.90;;;;;;5080133;28;20434;-67
2022/11/14 12:03:46;;;;;;;11.70;9.63;;;11.60;99.90;;;;;;5079672;28;20478;-67
2022/11/14 12:06:23;;;;;;;4.97;4.57;;;11.50;99.90;;;;;;5079783;28;20439;-66
2022/11/14 12:09:02;;;;;;;4.33;4.03;;;11.60;99.90;;;;;;5078817;28;20437;-67
2022/11/14 12:11:32;;;;;;;4.33;4.03;;;11.50;99.90;;;;;;5080233;28;20430;-66
2022/11/14 12:14:13;;;;;;;4.53;4.13;;;11.50;99.90;;;;;;5079951;28;20473;-66
2022/11/14 12:17:01;;;;;;;3.63;3.43;;;11.50;99.90;;;;;;5078116;28;20434;-67
2022/11/14 12:19:57;;;;;;;5.97;5.47;;;11.50;99.90;;;;;;5077547;28;20430;-67
2022/11/14 12:22:45;;;;;;;4.83;4.53;;;11.50;99.90;;;;;;5078136;28;20797;-68
2022/11/14 12:25:34;;;;;;;3.60;3.40;;;11.50;99.90;;;;;;5077509;28;21042;-66
2022/11/14 12:28:27;;;;;;;3.40;3.20;;;11.40;99.90;;;;;;5078020;28;20449;-67
2022/11/14 12:30:57;;;;;;;4.50;4.17;;;11.50;99.90;;;;;;5078407;28;20494;-67
2022/11/14 12:33:27;;;;;;;4.30;3.90;;;11.50;99.90;;;;;;5077637;28;20453;-67
2022/11/14 12:35:59;;;;;;;3.50;3.20;;;11.60;99.90;;;;;;5078125;28;20434;-67
2022/11/14 12:38:30;;;;;;;3.77;3.40;;;11.70;99.90;;;;;;5077478;28;20439;-67
2022/11/14 12:40:58;;;;;;;2.87;2.63;;;11.70;99.90;;;;;;5077047;28;20437;-67
2022/11/14 12:43:34;;;;;;;4.83;2.93;;;11.80;99.90;;;;;;5077478;28;20582;-67
2022/11/14 12:46:08;;;;;;;5.50;2.80;;;11.90;99.90;;;;;;5077982;28;20472;-67
2022/11/14 12:48:37;;;;;;;3.13;2.47;;;12.00;99.90;;;;;;5076839;28;20504;-66
2022/11/14 12:51:44;;;;;;;3.07;2.87;;;12.20;99.90;;;;;;5077209;28;20561;-66
2022/11/14 12:54:44;;;;;;;2.67;2.57;;;12.60;99.90;;;;;;5077023;28;20477;-66
2022/11/14 12:57:46;;;;;;;4.77;4.20;;;12.90;99.90;;;;;;5077222;28;20441;-67